UAL617 KLAS-KDEN
Flight info
| Callsign | UAL617 |
|---|---|
| Flight time | 1h 30m |
| Altitude | 35000 |
| Route | GIDGT3 TUKRR BUMMP SSKII4 |
| Aircraft | A21N/M-SDE2E3FGHIRWXY/LB1 |
Departure
| Time | 2026-05-07 04:50 |
|---|---|
| Airport | Harry Reid International Airport (KLAS) |
Arrival
| Time | 2026-05-07 06:21 |
|---|---|
| Airport | Denver International Airport (KDEN) |
| Time | Latitude | Longitude | Altitude | Speed | Heading |
|---|---|---|---|---|---|
| 2026-05-07 04:12 | 36.08331 | -115.13975 | 2088 ft | 0 kts | 143° |
| 2026-05-07 04:36 | 36.08342 | -115.13984 | 2087 ft | 2 kts | 155° |
| 2026-05-07 04:36 | 36.08357 | -115.13990 | 2087 ft | 2 kts | 169° |
| 2026-05-07 04:37 | 36.08372 | -115.13992 | 2087 ft | 2 kts | 184° |
| 2026-05-07 04:37 | 36.08388 | -115.13988 | 2086 ft | 2 kts | 199° |
| 2026-05-07 04:37 | 36.08402 | -115.13980 | 2086 ft | 2 kts | 213° |
| 2026-05-07 04:37 | 36.08415 | -115.13967 | 2085 ft | 2 kts | 228° |
| 2026-05-07 04:38 | 36.08424 | -115.13952 | 2085 ft | 2 kts | 243° |
| 2026-05-07 04:38 | 36.08429 | -115.13934 | 2085 ft | 2 kts | 257° |
| 2026-05-07 04:38 | 36.08431 | -115.13915 | 2084 ft | 2 kts | 271° |
| 2026-05-07 04:38 | 36.08431 | -115.13905 | 2084 ft | 1 kts | 279° |
| 2026-05-07 04:39 | 36.08430 | -115.13899 | 2084 ft | 0 kts | 279° |
| 2026-05-07 04:42 | 36.08437 | -115.13935 | 2084 ft | 7 kts | 278° |
| 2026-05-07 04:42 | 36.08434 | -115.14001 | 2086 ft | 6 kts | 252° |
| 2026-05-07 04:42 | 36.08415 | -115.14041 | 2087 ft | 4 kts | 232° |
| 2026-05-07 04:42 | 36.08397 | -115.14066 | 2088 ft | 3 kts | 226° |
| 2026-05-07 04:43 | 36.08364 | -115.14109 | 2090 ft | 10 kts | 225° |
| 2026-05-07 04:43 | 36.08320 | -115.14162 | 2092 ft | 7 kts | 223° |
| 2026-05-07 04:43 | 36.08283 | -115.14204 | 2094 ft | 6 kts | 222° |
| 2026-05-07 04:43 | 36.08243 | -115.14234 | 2095 ft | 10 kts | 195° |
| 2026-05-07 04:44 | 36.08171 | -115.14241 | 2097 ft | 9 kts | 181° |
| 2026-05-07 04:44 | 36.08103 | -115.14241 | 2098 ft | 8 kts | 180° |
| 2026-05-07 04:44 | 36.08042 | -115.14242 | 2099 ft | 8 kts | 180° |
| 2026-05-07 04:44 | 36.07975 | -115.14242 | 2100 ft | 10 kts | 180° |
| 2026-05-07 04:45 | 36.07905 | -115.14243 | 2102 ft | 9 kts | 180° |
| 2026-05-07 04:45 | 36.07844 | -115.14228 | 2102 ft | 8 kts | 140° |
| 2026-05-07 04:45 | 36.07827 | -115.14141 | 2100 ft | 13 kts | 91° |
| 2026-05-07 04:45 | 36.07824 | -115.14012 | 2096 ft | 16 kts | 91° |
| 2026-05-07 04:46 | 36.07827 | -115.13860 | 2091 ft | 18 kts | 89° |
| 2026-05-07 04:46 | 36.07828 | -115.13689 | 2086 ft | 20 kts | 91° |
| 2026-05-07 04:46 | 36.07827 | -115.13504 | 2082 ft | 21 kts | 89° |
| 2026-05-07 04:46 | 36.07827 | -115.13309 | 2077 ft | 21 kts | 89° |
| 2026-05-07 04:47 | 36.07826 | -115.13114 | 2072 ft | 22 kts | 91° |
| 2026-05-07 04:47 | 36.07826 | -115.12913 | 2069 ft | 22 kts | 88° |
| 2026-05-07 04:47 | 36.07829 | -115.12711 | 2064 ft | 21 kts | 93° |
| 2026-05-07 04:47 | 36.07826 | -115.12524 | 2063 ft | 18 kts | 90° |
| 2026-05-07 04:48 | 36.07827 | -115.12351 | 2060 ft | 18 kts | 90° |
| 2026-05-07 04:48 | 36.07784 | -115.12207 | 2059 ft | 15 kts | 128° |
| 2026-05-07 04:48 | 36.07715 | -115.12136 | 2059 ft | 12 kts | 172° |
| 2026-05-07 04:48 | 36.07646 | -115.12172 | 2059 ft | 11 kts | 257° |
| 2026-05-07 04:49 | 36.07643 | -115.12244 | 2060 ft | 0 kts | 270° |
| 2026-05-07 04:49 | 36.07643 | -115.12359 | 2061 ft | 45 kts | 270° |
| 2026-05-07 04:50 | 36.07641 | -115.13078 | 2074 ft | 115 kts | 269° |
| 2026-05-07 04:50 | 36.07638 | -115.14353 | 2109 ft | 170 kts | 270° |
| 2026-05-07 04:50 | 36.07638 | -115.15954 | 2611 ft | 174 kts | 270° |
| 2026-05-07 04:50 | 36.07656 | -115.17386 | 3361 ft | 164 kts | 270° |
| 2026-05-07 04:51 | 36.07656 | -115.18866 | 3859 ft | 173 kts | 270° |
| 2026-05-07 04:51 | 36.07650 | -115.20464 | 4284 ft | 184 kts | 270° |
| 2026-05-07 04:51 | 36.07647 | -115.22152 | 4557 ft | 197 kts | 270° |
| 2026-05-07 04:51 | 36.07646 | -115.23981 | 4837 ft | 211 kts | 271° |
| 2026-05-07 04:52 | 36.07670 | -115.25893 | 5114 ft | 225 kts | 277° |
| 2026-05-07 04:52 | 36.08324 | -115.27759 | 5440 ft | 231 kts | 313° |
| 2026-05-07 04:52 | 36.09712 | -115.28832 | 5869 ft | 233 kts | 343° |
| 2026-05-07 04:52 | 36.11335 | -115.29273 | 6388 ft | 233 kts | 349° |
| 2026-05-07 04:53 | 36.12946 | -115.29675 | 6913 ft | 234 kts | 352° |
| 2026-05-07 04:53 | 36.14593 | -115.29501 | 7394 ft | 233 kts | 18° |
| 2026-05-07 04:53 | 36.16004 | -115.28426 | 7890 ft | 235 kts | 43° |
| 2026-05-07 04:53 | 36.16974 | -115.26692 | 8378 ft | 237 kts | 59° |
| 2026-05-07 04:54 | 36.17703 | -115.24783 | 8859 ft | 240 kts | 65° |
| 2026-05-07 04:54 | 36.18339 | -115.22774 | 9340 ft | 241 kts | 66° |
| 2026-05-07 04:54 | 36.18968 | -115.20745 | 9833 ft | 242 kts | 66° |
| 2026-05-07 04:54 | 36.19455 | -115.18641 | 10331 ft | 245 kts | 75° |
| 2026-05-07 04:55 | 36.19629 | -115.16464 | 10840 ft | 248 kts | 84° |
| 2026-05-07 04:55 | 36.19647 | -115.14298 | 11335 ft | 248 kts | 86° |
| 2026-05-07 04:55 | 36.19641 | -115.12138 | 11805 ft | 250 kts | 86° |
| 2026-05-07 04:55 | 36.19639 | -115.09866 | 11911 ft | 271 kts | 86° |
| 2026-05-07 04:56 | 36.19637 | -115.07395 | 12212 ft | 285 kts | 86° |
| 2026-05-07 04:56 | 36.19637 | -115.04749 | 12512 ft | 301 kts | 86° |
| 2026-05-07 04:56 | 36.19635 | -115.02002 | 12813 ft | 317 kts | 86° |
| 2026-05-07 04:56 | 36.19634 | -114.99066 | 13111 ft | 333 kts | 87° |
| 2026-05-07 04:57 | 36.19631 | -114.96025 | 13393 ft | 348 kts | 87° |
| 2026-05-07 04:57 | 36.19628 | -114.92892 | 13665 ft | 362 kts | 87° |
| 2026-05-07 04:57 | 36.19624 | -114.89557 | 14027 ft | 373 kts | 87° |
| 2026-05-07 04:57 | 36.19618 | -114.86134 | 14598 ft | 377 kts | 87° |
| 2026-05-07 04:58 | 36.19610 | -114.82731 | 15223 ft | 380 kts | 87° |
| 2026-05-07 04:58 | 36.19603 | -114.79332 | 15807 ft | 383 kts | 87° |
| 2026-05-07 04:58 | 36.19596 | -114.75824 | 16383 ft | 386 kts | 87° |
| 2026-05-07 04:58 | 36.19587 | -114.72186 | 16977 ft | 389 kts | 87° |
| 2026-05-07 04:59 | 36.19578 | -114.68738 | 17495 ft | 392 kts | 87° |
| 2026-05-07 04:59 | 36.19569 | -114.65170 | 18030 ft | 395 kts | 87° |
| 2026-05-07 04:59 | 36.19561 | -114.61633 | 18555 ft | 398 kts | 87° |
| 2026-05-07 04:59 | 36.19553 | -114.58116 | 19058 ft | 401 kts | 86° |
| 2026-05-07 05:00 | 36.19545 | -114.54580 | 19547 ft | 404 kts | 86° |
| 2026-05-07 05:00 | 36.19535 | -114.51002 | 20037 ft | 406 kts | 86° |
| 2026-05-07 05:00 | 36.19522 | -114.47300 | 20532 ft | 409 kts | 86° |
| 2026-05-07 05:00 | 36.19510 | -114.43666 | 21003 ft | 411 kts | 86° |
| 2026-05-07 05:01 | 36.19497 | -114.40119 | 21445 ft | 414 kts | 86° |
| 2026-05-07 05:01 | 36.19480 | -114.36378 | 21899 ft | 417 kts | 86° |
| 2026-05-07 05:01 | 36.19463 | -114.32728 | 22337 ft | 419 kts | 87° |
| 2026-05-07 05:01 | 36.19446 | -114.28997 | 22735 ft | 422 kts | 87° |
| 2026-05-07 05:02 | 36.19526 | -114.25218 | 23148 ft | 423 kts | 84° |
| 2026-05-07 05:02 | 36.19766 | -114.21519 | 23557 ft | 424 kts | 81° |
| 2026-05-07 05:02 | 36.20163 | -114.17813 | 23940 ft | 426 kts | 79° |
| 2026-05-07 05:02 | 36.20609 | -114.14058 | 24307 ft | 429 kts | 78° |
| 2026-05-07 05:03 | 36.21069 | -114.10229 | 24678 ft | 431 kts | 78° |
| 2026-05-07 05:03 | 36.21535 | -114.06352 | 25011 ft | 433 kts | 78° |
| 2026-05-07 05:03 | 36.22009 | -114.02377 | 25356 ft | 436 kts | 78° |
| 2026-05-07 05:03 | 36.22471 | -113.98490 | 25676 ft | 438 kts | 78° |
| 2026-05-07 05:04 | 36.22925 | -113.94652 | 25971 ft | 440 kts | 78° |
| 2026-05-07 05:04 | 36.23385 | -113.90749 | 26337 ft | 440 kts | 78° |
| 2026-05-07 05:04 | 36.23846 | -113.86815 | 26797 ft | 438 kts | 78° |
| 2026-05-07 05:04 | 36.24305 | -113.82888 | 27217 ft | 437 kts | 78° |
| 2026-05-07 05:05 | 36.24756 | -113.79029 | 27611 ft | 436 kts | 78° |
| 2026-05-07 05:05 | 36.25203 | -113.75192 | 27986 ft | 435 kts | 78° |
| 2026-05-07 05:05 | 36.25663 | -113.71236 | 28367 ft | 435 kts | 78° |
| 2026-05-07 05:05 | 36.26117 | -113.67321 | 28774 ft | 433 kts | 78° |
| 2026-05-07 05:06 | 36.26559 | -113.63479 | 29166 ft | 431 kts | 78° |
| 2026-05-07 05:06 | 36.27003 | -113.59614 | 29512 ft | 431 kts | 78° |
| 2026-05-07 05:06 | 36.27453 | -113.55702 | 29853 ft | 430 kts | 78° |
| 2026-05-07 05:06 | 36.27886 | -113.51927 | 30205 ft | 429 kts | 78° |
| 2026-05-07 05:07 | 36.28319 | -113.48139 | 30517 ft | 428 kts | 78° |
| 2026-05-07 05:07 | 36.28742 | -113.44422 | 30803 ft | 428 kts | 78° |
| 2026-05-07 05:07 | 36.29169 | -113.40670 | 31079 ft | 428 kts | 78° |
| 2026-05-07 05:07 | 36.29597 | -113.36878 | 31361 ft | 428 kts | 78° |
| 2026-05-07 05:08 | 36.30013 | -113.33190 | 31622 ft | 428 kts | 78° |
| 2026-05-07 05:08 | 36.30469 | -113.29475 | 31885 ft | 427 kts | 76° |
| 2026-05-07 05:08 | 36.31074 | -113.25794 | 32171 ft | 424 kts | 73° |
| 2026-05-07 05:08 | 36.31827 | -113.22201 | 32449 ft | 422 kts | 70° |
| 2026-05-07 05:09 | 36.32742 | -113.18640 | 32714 ft | 419 kts | 67° |
| 2026-05-07 05:09 | 36.33819 | -113.15123 | 32971 ft | 417 kts | 64° |
| 2026-05-07 05:09 | 36.34998 | -113.11713 | 33194 ft | 417 kts | 63° |
| 2026-05-07 05:09 | 36.36201 | -113.08301 | 33404 ft | 417 kts | 63° |
| 2026-05-07 05:10 | 36.37450 | -113.04760 | 33581 ft | 418 kts | 63° |
| 2026-05-07 05:10 | 36.38678 | -113.01278 | 33743 ft | 419 kts | 63° |
| 2026-05-07 05:10 | 36.39896 | -112.97816 | 33907 ft | 420 kts | 63° |
| 2026-05-07 05:10 | 36.41143 | -112.94265 | 34072 ft | 420 kts | 63° |
| 2026-05-07 05:11 | 36.42351 | -112.90819 | 34246 ft | 421 kts | 63° |
| 2026-05-07 05:11 | 36.43587 | -112.87290 | 34414 ft | 421 kts | 63° |
| 2026-05-07 05:11 | 36.44812 | -112.83790 | 34584 ft | 421 kts | 63° |
| 2026-05-07 05:11 | 36.46024 | -112.80320 | 34742 ft | 422 kts | 63° |
| 2026-05-07 05:12 | 36.47247 | -112.76814 | 34865 ft | 423 kts | 63° |
| 2026-05-07 05:12 | 36.48454 | -112.73347 | 34979 ft | 424 kts | 63° |
| 2026-05-07 05:12 | 36.50887 | -112.66355 | 35186 ft | 426 kts | 63° |
| 2026-05-07 05:13 | 36.53341 | -112.59281 | 35247 ft | 428 kts | 63° |
| 2026-05-07 05:13 | 36.55787 | -112.52214 | 35258 ft | 427 kts | 63° |
| 2026-05-07 05:14 | 36.58230 | -112.45144 | 35260 ft | 427 kts | 63° |
| 2026-05-07 05:14 | 36.60662 | -112.38083 | 35271 ft | 427 kts | 63° |
| 2026-05-07 05:15 | 36.63118 | -112.30940 | 35278 ft | 427 kts | 64° |
| 2026-05-07 05:15 | 36.65555 | -112.23836 | 35290 ft | 428 kts | 63° |
| 2026-05-07 05:16 | 36.67977 | -112.16755 | 35282 ft | 428 kts | 63° |
| 2026-05-07 05:16 | 36.70423 | -112.09591 | 35272 ft | 428 kts | 63° |
| 2026-05-07 05:17 | 36.72811 | -112.02576 | 35267 ft | 429 kts | 63° |
| 2026-05-07 05:17 | 36.75201 | -111.95545 | 35260 ft | 429 kts | 63° |
| 2026-05-07 05:18 | 36.77606 | -111.88447 | 35256 ft | 430 kts | 63° |
| 2026-05-07 05:18 | 36.80030 | -111.81274 | 35246 ft | 431 kts | 63° |
| 2026-05-07 05:19 | 36.82423 | -111.74184 | 35237 ft | 430 kts | 63° |
| 2026-05-07 05:19 | 36.84915 | -111.66997 | 35232 ft | 429 kts | 60° |
| 2026-05-07 05:20 | 36.87970 | -111.60009 | 35219 ft | 427 kts | 56° |
| 2026-05-07 05:20 | 36.91298 | -111.53031 | 35207 ft | 428 kts | 55° |
| 2026-05-07 05:21 | 36.96221 | -111.42698 | 35187 ft | 428 kts | 56° |
| 2026-05-07 05:22 | 36.99484 | -111.35825 | 35182 ft | 427 kts | 56° |
| 2026-05-07 05:22 | 37.02615 | -111.29211 | 35185 ft | 429 kts | 56° |
| 2026-05-07 05:23 | 37.05725 | -111.22629 | 35186 ft | 430 kts | 56° |
| 2026-05-07 05:23 | 37.08849 | -111.16005 | 35202 ft | 430 kts | 56° |
| 2026-05-07 05:24 | 37.11958 | -111.09399 | 35205 ft | 430 kts | 56° |
| 2026-05-07 05:24 | 37.15087 | -111.02740 | 35212 ft | 430 kts | 56° |
| 2026-05-07 05:25 | 37.18205 | -110.96087 | 35216 ft | 429 kts | 56° |
| 2026-05-07 05:25 | 37.21303 | -110.89461 | 35223 ft | 430 kts | 56° |
| 2026-05-07 05:26 | 37.24429 | -110.82768 | 35224 ft | 431 kts | 56° |
| 2026-05-07 05:26 | 37.27530 | -110.76113 | 35224 ft | 431 kts | 56° |
| 2026-05-07 05:27 | 37.30600 | -110.69513 | 35224 ft | 431 kts | 56° |
| 2026-05-07 05:27 | 37.33740 | -110.62743 | 35225 ft | 431 kts | 56° |
| 2026-05-07 05:28 | 37.36881 | -110.55963 | 35224 ft | 431 kts | 56° |
| 2026-05-07 05:28 | 37.39980 | -110.49258 | 35224 ft | 432 kts | 56° |
| 2026-05-07 05:29 | 37.43099 | -110.42494 | 35227 ft | 433 kts | 56° |
| 2026-05-07 05:29 | 37.46206 | -110.35742 | 35233 ft | 434 kts | 56° |
| 2026-05-07 05:30 | 37.49306 | -110.28991 | 35233 ft | 434 kts | 56° |
| 2026-05-07 05:30 | 37.52446 | -110.22142 | 35234 ft | 434 kts | 56° |
| 2026-05-07 05:31 | 37.55540 | -110.15376 | 35239 ft | 434 kts | 56° |
| 2026-05-07 05:31 | 37.58649 | -110.08566 | 35236 ft | 434 kts | 56° |
| 2026-05-07 05:32 | 37.61745 | -110.01768 | 35240 ft | 434 kts | 56° |
| 2026-05-07 05:32 | 37.64837 | -109.94962 | 35243 ft | 435 kts | 56° |
| 2026-05-07 05:33 | 37.67950 | -109.88102 | 35248 ft | 435 kts | 56° |
| 2026-05-07 05:33 | 37.71134 | -109.81070 | 35250 ft | 436 kts | 56° |
| 2026-05-07 05:34 | 37.74212 | -109.74251 | 35249 ft | 436 kts | 56° |
| 2026-05-07 05:34 | 37.77309 | -109.67379 | 35250 ft | 436 kts | 56° |
| 2026-05-07 05:35 | 37.80387 | -109.60533 | 35249 ft | 436 kts | 56° |
| 2026-05-07 05:35 | 37.83469 | -109.53669 | 35248 ft | 437 kts | 56° |
| 2026-05-07 05:36 | 37.86553 | -109.46781 | 35250 ft | 438 kts | 56° |
| 2026-05-07 05:36 | 37.89640 | -109.39874 | 35249 ft | 439 kts | 56° |
| 2026-05-07 05:37 | 37.92732 | -109.32936 | 35240 ft | 439 kts | 57° |
| 2026-05-07 05:37 | 37.95859 | -109.25908 | 35242 ft | 438 kts | 57° |
| 2026-05-07 05:38 | 37.98882 | -109.19099 | 35247 ft | 439 kts | 57° |
| 2026-05-07 05:38 | 38.01941 | -109.12195 | 35244 ft | 440 kts | 57° |
| 2026-05-07 05:39 | 38.04984 | -109.05311 | 35244 ft | 440 kts | 57° |
| 2026-05-07 05:39 | 38.08072 | -108.98303 | 35241 ft | 440 kts | 57° |
| 2026-05-07 05:40 | 38.11030 | -108.91338 | 35242 ft | 441 kts | 59° |
| 2026-05-07 05:40 | 38.13850 | -108.84186 | 35263 ft | 441 kts | 59° |
| 2026-05-07 05:41 | 38.16628 | -108.77101 | 35275 ft | 441 kts | 59° |
| 2026-05-07 05:41 | 38.19491 | -108.69794 | 35284 ft | 442 kts | 59° |
| 2026-05-07 05:42 | 38.22288 | -108.62636 | 35304 ft | 442 kts | 59° |
| 2026-05-07 05:42 | 38.25123 | -108.55369 | 35320 ft | 442 kts | 59° |
| 2026-05-07 05:43 | 38.27920 | -108.48186 | 35342 ft | 442 kts | 59° |
| 2026-05-07 05:43 | 38.30724 | -108.40970 | 35344 ft | 442 kts | 59° |
| 2026-05-07 05:44 | 38.33534 | -108.33711 | 35351 ft | 442 kts | 59° |
| 2026-05-07 05:44 | 38.36302 | -108.26553 | 35350 ft | 443 kts | 59° |
| 2026-05-07 05:45 | 38.39082 | -108.19345 | 35348 ft | 444 kts | 59° |
| 2026-05-07 05:45 | 38.41839 | -108.12177 | 35357 ft | 444 kts | 59° |
| 2026-05-07 05:46 | 38.44640 | -108.04877 | 35354 ft | 444 kts | 59° |
| 2026-05-07 05:46 | 38.47439 | -107.97542 | 35348 ft | 445 kts | 59° |
| 2026-05-07 05:47 | 38.50214 | -107.90202 | 35337 ft | 445 kts | 59° |
| 2026-05-07 05:47 | 38.53006 | -107.82796 | 35335 ft | 445 kts | 59° |
| 2026-05-07 05:48 | 38.55741 | -107.75530 | 35352 ft | 445 kts | 59° |
| 2026-05-07 05:48 | 38.58469 | -107.68261 | 35378 ft | 445 kts | 59° |
| 2026-05-07 05:49 | 38.61225 | -107.60901 | 35391 ft | 444 kts | 59° |
| 2026-05-07 05:49 | 38.63948 | -107.53613 | 35397 ft | 445 kts | 59° |
| 2026-05-07 05:50 | 38.66734 | -107.46176 | 35386 ft | 445 kts | 59° |
| 2026-05-07 05:50 | 38.69513 | -107.38853 | 35373 ft | 444 kts | 59° |
| 2026-05-07 05:51 | 38.72253 | -107.31616 | 35359 ft | 445 kts | 59° |
| 2026-05-07 05:51 | 38.75032 | -107.24250 | 35330 ft | 444 kts | 59° |
| 2026-05-07 05:52 | 38.77754 | -107.17017 | 35326 ft | 444 kts | 59° |
| 2026-05-07 05:52 | 38.80531 | -107.09615 | 35325 ft | 444 kts | 59° |
| 2026-05-07 05:53 | 38.83240 | -107.02378 | 35322 ft | 445 kts | 59° |
| 2026-05-07 05:53 | 38.85973 | -106.95057 | 35317 ft | 445 kts | 59° |
| 2026-05-07 05:54 | 38.88720 | -106.87688 | 35310 ft | 445 kts | 59° |
| 2026-05-07 05:54 | 38.91430 | -106.80391 | 35320 ft | 444 kts | 59° |
| 2026-05-07 05:55 | 38.94138 | -106.73085 | 35339 ft | 444 kts | 59° |
| 2026-05-07 05:55 | 38.96862 | -106.65721 | 34869 ft | 448 kts | 59° |
| 2026-05-07 05:55 | 38.98234 | -106.61999 | 34208 ft | 448 kts | 59° |
| 2026-05-07 05:56 | 38.99596 | -106.58299 | 33516 ft | 448 kts | 59° |
| 2026-05-07 05:56 | 39.00946 | -106.54632 | 32826 ft | 448 kts | 59° |
| 2026-05-07 05:56 | 39.02313 | -106.50909 | 32125 ft | 448 kts | 59° |
| 2026-05-07 05:56 | 39.03664 | -106.47213 | 31422 ft | 448 kts | 59° |
| 2026-05-07 05:57 | 39.05011 | -106.43522 | 30936 ft | 441 kts | 59° |
| 2026-05-07 05:57 | 39.06323 | -106.39920 | 30469 ft | 435 kts | 59° |
| 2026-05-07 05:57 | 39.07625 | -106.36344 | 29997 ft | 429 kts | 59° |
| 2026-05-07 05:57 | 39.08928 | -106.32765 | 29521 ft | 424 kts | 59° |
| 2026-05-07 05:58 | 39.10173 | -106.29345 | 29064 ft | 419 kts | 59° |
| 2026-05-07 05:58 | 39.11427 | -106.25893 | 28602 ft | 415 kts | 59° |
| 2026-05-07 05:58 | 39.12661 | -106.22488 | 28152 ft | 410 kts | 59° |
| 2026-05-07 05:58 | 39.13896 | -106.19084 | 27687 ft | 406 kts | 59° |
| 2026-05-07 05:59 | 39.15098 | -106.15767 | 27240 ft | 402 kts | 59° |
| 2026-05-07 05:59 | 39.16312 | -106.12402 | 27158 ft | 404 kts | 59° |
| 2026-05-07 05:59 | 39.17519 | -106.09051 | 27181 ft | 406 kts | 59° |
| 2026-05-07 05:59 | 39.18765 | -106.05589 | 27174 ft | 407 kts | 60° |
| 2026-05-07 06:00 | 39.19992 | -106.02169 | 26706 ft | 409 kts | 60° |
| 2026-05-07 06:00 | 39.21221 | -105.98743 | 26217 ft | 408 kts | 60° |
| 2026-05-07 06:00 | 39.22463 | -105.95273 | 25726 ft | 406 kts | 60° |
| 2026-05-07 06:00 | 39.23681 | -105.91863 | 25255 ft | 402 kts | 60° |
| 2026-05-07 06:01 | 39.24892 | -105.88496 | 24851 ft | 396 kts | 60° |
| 2026-05-07 06:01 | 39.26094 | -105.85159 | 24406 ft | 392 kts | 60° |
| 2026-05-07 06:01 | 39.27269 | -105.81902 | 23963 ft | 389 kts | 60° |
| 2026-05-07 06:01 | 39.28435 | -105.78660 | 23517 ft | 386 kts | 60° |
| 2026-05-07 06:02 | 39.29573 | -105.75497 | 23074 ft | 383 kts | 60° |
| 2026-05-07 06:02 | 39.30715 | -105.72316 | 22627 ft | 379 kts | 60° |
| 2026-05-07 06:02 | 39.31827 | -105.69209 | 22340 ft | 371 kts | 60° |
| 2026-05-07 06:02 | 39.32919 | -105.66162 | 22216 ft | 359 kts | 59° |
| 2026-05-07 06:03 | 39.34041 | -105.63086 | 21753 ft | 358 kts | 59° |
| 2026-05-07 06:03 | 39.35113 | -105.60163 | 21307 ft | 357 kts | 59° |
| 2026-05-07 06:03 | 39.36192 | -105.57227 | 20882 ft | 355 kts | 59° |
| 2026-05-07 06:03 | 39.37250 | -105.54329 | 20464 ft | 353 kts | 59° |
| 2026-05-07 06:04 | 39.38305 | -105.51433 | 20043 ft | 351 kts | 59° |
| 2026-05-07 06:04 | 39.39357 | -105.48541 | 19622 ft | 348 kts | 59° |
| 2026-05-07 06:04 | 39.40416 | -105.45618 | 19431 ft | 338 kts | 59° |
| 2026-05-07 06:04 | 39.41454 | -105.42937 | 19312 ft | 323 kts | 55° |
| 2026-05-07 06:05 | 39.42615 | -105.40441 | 19265 ft | 315 kts | 50° |
| 2026-05-07 06:05 | 39.43906 | -105.38028 | 19286 ft | 318 kts | 49° |
| 2026-05-07 06:05 | 39.45195 | -105.35668 | 19291 ft | 318 kts | 49° |
| 2026-05-07 06:05 | 39.46492 | -105.33293 | 19281 ft | 319 kts | 49° |
| 2026-05-07 06:06 | 39.47814 | -105.30868 | 19131 ft | 321 kts | 49° |
| 2026-05-07 06:06 | 39.49117 | -105.28472 | 18677 ft | 321 kts | 49° |
| 2026-05-07 06:06 | 39.50432 | -105.26047 | 18256 ft | 320 kts | 49° |
| 2026-05-07 06:06 | 39.51731 | -105.23648 | 17856 ft | 317 kts | 49° |
| 2026-05-07 06:07 | 39.53017 | -105.21274 | 17459 ft | 315 kts | 49° |
| 2026-05-07 06:07 | 39.54304 | -105.18891 | 17058 ft | 313 kts | 49° |
| 2026-05-07 06:07 | 39.55580 | -105.16525 | 17046 ft | 307 kts | 49° |
| 2026-05-07 06:07 | 39.56841 | -105.14191 | 17037 ft | 308 kts | 49° |
| 2026-05-07 06:08 | 39.58126 | -105.11813 | 17076 ft | 309 kts | 49° |
| 2026-05-07 06:08 | 39.59380 | -105.09484 | 17072 ft | 308 kts | 49° |
| 2026-05-07 06:08 | 39.60645 | -105.07133 | 17053 ft | 308 kts | 49° |
| 2026-05-07 06:08 | 39.61911 | -105.04778 | 17022 ft | 308 kts | 49° |
| 2026-05-07 06:09 | 39.63158 | -105.02457 | 16982 ft | 308 kts | 49° |
| 2026-05-07 06:09 | 39.64407 | -105.00135 | 16619 ft | 310 kts | 49° |
| 2026-05-07 06:09 | 39.65679 | -104.97769 | 16199 ft | 309 kts | 49° |
| 2026-05-07 06:09 | 39.66942 | -104.95411 | 15798 ft | 308 kts | 49° |
| 2026-05-07 06:10 | 39.68186 | -104.93087 | 15409 ft | 305 kts | 49° |
| 2026-05-07 06:10 | 39.69426 | -104.90767 | 15034 ft | 303 kts | 49° |
| 2026-05-07 06:10 | 39.70664 | -104.88452 | 14661 ft | 300 kts | 49° |
| 2026-05-07 06:10 | 39.71889 | -104.86184 | 14308 ft | 295 kts | 45° |
| 2026-05-07 06:11 | 39.73444 | -104.84509 | 14075 ft | 271 kts | 18° |
| 2026-05-07 06:11 | 39.75270 | -104.84042 | 13708 ft | 261 kts | 357° |
| 2026-05-07 06:11 | 39.77143 | -104.84071 | 13344 ft | 258 kts | 358° |
| 2026-05-07 06:11 | 39.78963 | -104.84062 | 12987 ft | 256 kts | 358° |
| 2026-05-07 06:12 | 39.80774 | -104.84042 | 12638 ft | 255 kts | 358° |
| 2026-05-07 06:12 | 39.82598 | -104.84020 | 12279 ft | 256 kts | 358° |
| 2026-05-07 06:12 | 39.84418 | -104.84001 | 11918 ft | 256 kts | 358° |
| 2026-05-07 06:12 | 39.86224 | -104.83980 | 11567 ft | 255 kts | 358° |
| 2026-05-07 06:13 | 39.88072 | -104.83960 | 11205 ft | 254 kts | 358° |
| 2026-05-07 06:13 | 39.89860 | -104.83937 | 11148 ft | 248 kts | 358° |
| 2026-05-07 06:13 | 39.91622 | -104.83917 | 11007 ft | 245 kts | 357° |
| 2026-05-07 06:13 | 39.93377 | -104.83897 | 10780 ft | 241 kts | 357° |
| 2026-05-07 06:14 | 39.95104 | -104.83882 | 10355 ft | 242 kts | 357° |
| 2026-05-07 06:14 | 39.96846 | -104.83864 | 9942 ft | 243 kts | 357° |
| 2026-05-07 06:14 | 39.98595 | -104.83850 | 9553 ft | 243 kts | 357° |
| 2026-05-07 06:14 | 40.00367 | -104.83839 | 9156 ft | 243 kts | 357° |
| 2026-05-07 06:15 | 40.02095 | -104.83828 | 8768 ft | 244 kts | 360° |
| 2026-05-07 06:15 | 40.03778 | -104.83302 | 8347 ft | 250 kts | 28° |
| 2026-05-07 06:15 | 40.05082 | -104.81709 | 7994 ft | 252 kts | 59° |
| 2026-05-07 06:15 | 40.05725 | -104.79532 | 8001 ft | 232 kts | 71° |
| 2026-05-07 06:16 | 40.06128 | -104.77576 | 8033 ft | 212 kts | 73° |
| 2026-05-07 06:16 | 40.06477 | -104.75677 | 7993 ft | 209 kts | 76° |
| 2026-05-07 06:16 | 40.06548 | -104.73693 | 7974 ft | 211 kts | 93° |
| 2026-05-07 06:16 | 40.06179 | -104.71826 | 7965 ft | 206 kts | 114° |
| 2026-05-07 06:17 | 40.05318 | -104.70325 | 7941 ft | 200 kts | 147° |
| 2026-05-07 06:17 | 40.03986 | -104.69699 | 7974 ft | 195 kts | 172° |
| 2026-05-07 06:17 | 40.02661 | -104.69502 | 7881 ft | 179 kts | 179° |
| 2026-05-07 06:17 | 40.01405 | -104.69463 | 7639 ft | 173 kts | 182° |
| 2026-05-07 06:18 | 40.00188 | -104.69475 | 7410 ft | 169 kts | 184° |
| 2026-05-07 06:18 | 39.98993 | -104.69496 | 7180 ft | 167 kts | 183° |
| 2026-05-07 06:18 | 39.97817 | -104.69513 | 6954 ft | 164 kts | 183° |
| 2026-05-07 06:18 | 39.96661 | -104.69527 | 6734 ft | 162 kts | 182° |
| 2026-05-07 06:19 | 39.95521 | -104.69540 | 6513 ft | 159 kts | 182° |
| 2026-05-07 06:19 | 39.94373 | -104.69553 | 6290 ft | 157 kts | 182° |
| 2026-05-07 06:19 | 39.93252 | -104.69566 | 6075 ft | 156 kts | 182° |
| 2026-05-07 06:19 | 39.92144 | -104.69586 | 5862 ft | 156 kts | 182° |
| 2026-05-07 06:20 | 39.91033 | -104.69613 | 5653 ft | 155 kts | 179° |
| 2026-05-07 06:20 | 39.89926 | -104.69598 | 5465 ft | 155 kts | 181° |
| 2026-05-07 06:20 | 39.88819 | -104.69618 | 5341 ft | 153 kts | 178° |
| 2026-05-07 06:20 | 39.87942 | -104.69629 | 5332 ft | 84 kts | 175° |
| 2026-05-07 06:21 | 39.87528 | -104.69613 | 5330 ft | 24 kts | 139° |
| 2026-05-07 06:21 | 39.87505 | -104.69445 | 5330 ft | 18 kts | 91° |
| 2026-05-07 06:21 | 39.87502 | -104.69274 | 5332 ft | 16 kts | 91° |
| 2026-05-07 06:21 | 39.87502 | -104.69158 | 5341 ft | 8 kts | 89° |
| 2026-05-07 06:22 | 39.87502 | -104.69103 | 5345 ft | 3 kts | 90° |
| 2026-05-07 06:22 | 39.87499 | -104.68873 | 5356 ft | 13 kts | 89° |
| 2026-05-07 06:22 | 39.87500 | -104.68776 | 5362 ft | 7 kts | 90° |
| 2026-05-07 06:23 | 39.87499 | -104.68715 | 5363 ft | 6 kts | 90° |
| 2026-05-07 06:23 | 39.87498 | -104.68647 | 5363 ft | 8 kts | 91° |
| 2026-05-07 06:23 | 39.87497 | -104.68558 | 5363 ft | 9 kts | 94° |
| 2026-05-07 06:23 | 39.87449 | -104.68501 | 5363 ft | 10 kts | 168° |
| 2026-05-07 06:24 | 39.87372 | -104.68496 | 5363 ft | 11 kts | 180° |
| 2026-05-07 06:24 | 39.87287 | -104.68497 | 5363 ft | 12 kts | 181° |
| 2026-05-07 06:24 | 39.87198 | -104.68500 | 5363 ft | 12 kts | 180° |
| 2026-05-07 06:24 | 39.87109 | -104.68499 | 5363 ft | 12 kts | 179° |
| 2026-05-07 06:25 | 39.87022 | -104.68499 | 5364 ft | 11 kts | 181° |
| 2026-05-07 06:25 | 39.86945 | -104.68501 | 5366 ft | 11 kts | 180° |
| 2026-05-07 06:25 | 39.86836 | -104.68502 | 5366 ft | 16 kts | 180° |
| 2026-05-07 06:25 | 39.86719 | -104.68504 | 5366 ft | 19 kts | 180° |
| 2026-05-07 06:26 | 39.86576 | -104.68506 | 5366 ft | 19 kts | 180° |
| 2026-05-07 06:26 | 39.86426 | -104.68508 | 5366 ft | 23 kts | 181° |
| 2026-05-07 06:26 | 39.86249 | -104.68510 | 5369 ft | 23 kts | 180° |
| 2026-05-07 06:26 | 39.86086 | -104.68513 | 5372 ft | 21 kts | 179° |
| 2026-05-07 06:27 | 39.85946 | -104.68512 | 5373 ft | 19 kts | 180° |
| 2026-05-07 06:27 | 39.85812 | -104.68515 | 5373 ft | 18 kts | 180° |
| 2026-05-07 06:27 | 39.85701 | -104.68483 | 5376 ft | 15 kts | 125° |
| 2026-05-07 06:27 | 39.85687 | -104.68362 | 5379 ft | 12 kts | 90° |
| 2026-05-07 06:28 | 39.85689 | -104.68257 | 5383 ft | 10 kts | 76° |
| 2026-05-07 06:28 | 39.85732 | -104.68176 | 5383 ft | 11 kts | 70° |
| 2026-05-07 06:28 | 39.85741 | -104.68075 | 5383 ft | 10 kts | 88° |
| 2026-05-07 06:28 | 39.85742 | -104.67987 | 5383 ft | 8 kts | 90° |
| 2026-05-07 06:29 | 39.85741 | -104.67921 | 5383 ft | 5 kts | 90° |
| 2026-05-07 06:29 | 39.85743 | -104.67870 | 5383 ft | 3 kts | 72° |
| 2026-05-07 06:29 | 39.85766 | -104.67855 | 5383 ft | 4 kts | 9° |
| 2026-05-07 06:29 | 39.85797 | -104.67852 | 5383 ft | 3 kts | 1° |
| 2026-05-07 06:30 | 39.85804 | -104.67852 | 5383 ft | 0 kts | 0° |